Time;durP1;ratioP1;P1;durP2;ratioP2;P2;SDS_P1;SDS_P2;PMS_P1;PMS_P2;Temp;Humidity;BMP_temperature;BMP_pressure;BME280_temperature;BME280_humidity;BME280_pressure;Samples;Min_cycle;Max_cycle;Signal;HPM_P1;HPM_P2
2022/08/29 00:02:18;;;;;;;7.50;3.35;;;;;;;13.90;100.00;102009.28;5220099;28;20030;-69
2022/08/29 00:04:50;;;;;;;8.43;3.83;;;;;;;13.95;100.00;102010.78;5226866;28;20025;-69
2022/08/29 00:07:21;;;;;;;9.63;4.25;;;;;;;13.91;100.00;102004.78;5212018;28;20397;-69
2022/08/29 00:09:52;;;;;;;8.43;4.05;;;;;;;13.89;100.00;102006.72;5209411;28;20039;-69
2022/08/29 00:12:24;;;;;;;8.32;4.38;;;;;;;14.00;100.00;102003.25;5216888;28;20038;-69
2022/08/29 00:14:55;;;;;;;10.15;4.95;;;;;;;13.95;100.00;102013.47;5210223;28;20071;-69
2022/08/29 00:17:26;;;;;;;10.60;5.00;;;;;;;13.79;100.00;102011.88;5198394;28;20038;-70
2022/08/29 00:19:58;;;;;;;10.20;4.75;;;;;;;13.84;100.00;102008.88;5205456;28;20041;-69
2022/08/29 00:22:29;;;;;;;8.95;4.95;;;;;;;13.82;100.00;102008.13;5201587;28;20033;-70
2022/08/29 00:25:03;;;;;;;11.07;5.13;;;;;;;13.73;100.00;102001.59;5202720;28;20022;-70
2022/08/29 00:27:34;;;;;;;9.30;4.55;;;;;;;13.79;100.00;102002.97;5206925;28;20499;-70
2022/08/29 00:30:07;;;;;;;7.78;4.80;;;;;;;13.68;100.00;102001.91;5203533;28;20026;-70
2022/08/29 00:32:39;;;;;;;9.50;5.07;;;;;;;13.64;100.00;101992.38;5208670;28;20140;-70
2022/08/29 00:35:17;;;;;;;11.25;5.50;;;;;;;13.63;100.00;101996.00;5206872;28;20530;-70
2022/08/29 00:37:50;;;;;;;9.23;5.43;;;;;;;13.66;100.00;101995.81;5198098;28;20554;-70
2022/08/29 00:40:32;;;;;;;9.80;5.70;;;;;;;13.48;100.00;102003.34;5203701;28;20030;-70
2022/08/29 00:43:05;;;;;;;11.00;5.90;;;;;;;13.44;100.00;102007.22;5202979;28;20571;-70
2022/08/29 00:45:41;;;;;;;13.07;6.10;;;;;;;13.47;100.00;102012.34;5203899;28;20024;-70
2022/08/29 00:48:14;;;;;;;10.48;6.20;;;;;;;13.44;100.00;102006.31;5202503;28;20058;-70
2022/08/29 00:50:50;;;;;;;11.32;6.38;;;;;;;13.40;100.00;102004.81;5206496;28;20033;-70
2022/08/29 00:53:28;;;;;;;11.57;6.25;;;;;;;13.27;100.00;102011.03;5196507;28;20079;-70
2022/08/29 00:56:01;;;;;;;15.40;6.90;;;;;;;13.23;100.00;102004.16;5220110;28;20030;-70
2022/08/29 00:58:57;;;;;;;14.05;6.82;;;;;;;13.27;100.00;102012.81;5203448;28;20066;-70
2022/08/29 01:01:29;;;;;;;11.32;6.50;;;;;;;13.20;100.00;102017.75;5206554;28;20037;-70
2022/08/29 01:04:00;;;;;;;12.23;7.07;;;;;;;13.09;100.00;102015.81;5214331;28;21200;-70
2022/08/29 01:06:33;;;;;;;14.50;6.85;;;;;;;13.23;100.00;102009.53;5215609;28;20739;-70
2022/08/29 01:09:07;;;;;;;15.35;6.82;;;;;;;13.08;100.00;102016.78;5202960;28;20019;-70
2022/08/29 01:14:28;;;;;;;11.57;7.60;;;;;;;13.03;100.00;102023.41;5195832;28;20492;-70
2022/08/29 01:17:02;;;;;;;11.50;7.07;;;;;;;12.97;100.00;102024.69;5201342;28;20034;-70
2022/08/29 01:19:40;;;;;;;14.07;6.65;;;;;;;12.93;100.00;102021.38;5201559;28;20124;-70
2022/08/29 01:22:34;;;;;;;12.23;7.85;;;;;;;12.92;100.00;102021.47;5203693;28;20041;-70
2022/08/29 01:25:11;;;;;;;12.02;7.20;;;;;;;12.89;100.00;102025.22;5205485;28;20037;-70
2022/08/29 01:27:46;;;;;;;15.07;8.10;;;;;;;12.89;100.00;102025.22;5203649;28;20033;-70
2022/08/29 01:30:18;;;;;;;12.73;7.88;;;;;;;12.81;100.00;102019.53;5202666;28;20029;-70
2022/08/29 01:32:50;;;;;;;12.65;7.97;;;;;;;12.79;100.00;102023.25;5201574;28;20120;-70
2022/08/29 01:35:21;;;;;;;16.88;7.90;;;;;;;12.66;100.00;102020.56;5204774;28;20026;-70
2022/08/29 01:37:53;;;;;;;13.10;8.27;;;;;;;12.63;100.00;102018.91;5201305;28;20040;-70
2022/08/29 01:40:28;;;;;;;10.55;7.80;;;;;;;12.65;100.00;102011.63;5204868;28;20035;-70
2022/08/29 01:42:59;;;;;;;13.00;8.07;;;;;;;12.56;100.00;101993.53;5205356;28;20455;-70
2022/08/29 01:45:31;;;;;;;13.40;9.23;;;;;;;12.57;100.00;102005.09;5204372;28;20026;-70
2022/08/29 01:48:02;;;;;;;15.50;8.35;;;;;;;12.60;100.00;101999.50;5207980;28;20061;-70
2022/08/29 01:50:34;;;;;;;13.25;8.73;;;;;;;12.63;100.00;102018.91;5221958;28;20404;-70
2022/08/29 01:53:05;;;;;;;14.32;9.10;;;;;;;12.52;100.00;102005.38;5201309;28;20021;-69
2022/08/29 01:55:37;;;;;;;14.98;9.65;;;;;;;12.54;100.00;102003.47;5208484;28;20520;-70
2022/08/29 01:58:08;;;;;;;15.15;10.32;;;;;;;12.43;100.00;102006.00;5215344;28;20034;-70
2022/08/29 02:00:39;;;;;;;15.63;10.23;;;;;;;12.55;100.00;102016.75;5210447;28;20068;-69
2022/08/29 02:03:11;;;;;;;16.67;10.27;;;;;;;12.46;100.00;102011.16;5208511;28;20042;-69
2022/08/29 02:05:43;;;;;;;17.17;10.68;;;;;;;12.48;100.00;102018.13;5209402;28;20136;-69
2022/08/29 02:08:14;;;;;;;16.58;11.35;;;;;;;12.46;100.00;102021.84;5216018;28;20022;-69
2022/08/29 02:10:47;;;;;;;19.75;11.80;;;;;;;12.32;100.00;102020.09;5204948;28;20687;-69
2022/08/29 02:13:18;;;;;;;18.73;11.88;;;;;;;12.31;100.00;102011.19;5222819;28;20030;-69
2022/08/29 02:15:50;;;;;;;21.17;11.80;;;;;;;12.35;100.00;102010.03;5205398;28;20395;-69
2022/08/29 02:18:22;;;;;;;19.05;11.75;;;;;;;12.28;100.00;102007.88;5210957;28;20030;-69
2022/08/29 02:20:53;;;;;;;17.50;11.10;;;;;;;12.31;100.00;102018.34;5213984;28;20407;-69
2022/08/29 02:23:25;;;;;;;18.30;11.27;;;;;;;12.35;100.00;102014.53;5204960;28;20042;-69
2022/08/29 02:25:56;;;;;;;17.02;11.82;;;;;;;12.27;100.00;102019.50;5202785;28;20030;-69
2022/08/29 02:28:27;;;;;;;16.92;11.38;;;;;;;12.27;100.00;102022.19;5210657;28;20030;-69
2022/08/29 02:30:59;;;;;;;17.80;10.75;;;;;;;12.25;100.00;102022.28;5202910;28;20084;-69
2022/08/29 02:33:31;;;;;;;16.20;10.50;;;;;;;12.27;100.00;102030.22;5206436;28;20495;-69
2022/08/29 02:36:04;;;;;;;18.38;10.95;;;;;;;12.32;100.00;102020.94;5205038;28;20034;-69
2022/08/29 02:38:36;;;;;;;17.60;9.98;;;;;;;12.23;100.00;102026.03;5201591;28;20153;-69
2022/08/29 02:41:07;;;;;;;16.55;9.77;;;;;;;12.20;100.00;102027.09;5204816;28;20037;-69
2022/08/29 02:43:38;;;;;;;14.77;9.98;;;;;;;12.19;100.00;102027.19;5197573;28;20066;-69
2022/08/29 02:46:15;;;;;;;17.23;9.52;;;;;;;12.23;100.00;102034.91;5210281;28;20038;-69
2022/08/29 02:48:47;;;;;;;16.30;9.27;;;;;;;12.25;100.00;102027.63;5207185;28;20445;-69
2022/08/29 02:51:22;;;;;;;16.38;9.65;;;;;;;12.15;100.00;102029.19;5200392;28;20066;-69
2022/08/29 02:53:54;;;;;;;15.20;9.73;;;;;;;12.12;100.00;102032.94;5201709;28;20541;-70
2022/08/29 02:56:26;;;;;;;16.83;9.32;;;;;;;12.17;100.00;102037.97;5206924;28;20091;-70
2022/08/29 02:58:58;;;;;;;14.70;9.52;;;;;;;12.13;100.00;102034.63;5223706;28;20415;-69
2022/08/29 03:01:30;;;;;;;14.82;9.23;;;;;;;12.08;100.00;102025.19;5207743;28;20036;-69
2022/08/29 03:04:02;;;;;;;19.65;9.07;;;;;;;12.03;100.00;102025.50;5201621;28;20407;-69
2022/08/29 03:06:33;;;;;;;17.10;9.48;;;;;;;12.04;100.00;102031.69;5208304;28;20691;-69
2022/08/29 03:09:04;;;;;;;16.05;8.93;;;;;;;12.00;100.00;102027.50;5211958;28;20030;-69
2022/08/29 03:11:35;;;;;;;13.60;8.88;;;;;;;12.00;100.00;102031.03;5209451;28;20041;-69
2022/08/29 03:14:07;;;;;;;15.40;9.45;;;;;;;11.96;100.00;102035.72;5208975;28;20133;-69
2022/08/29 03:16:39;;;;;;;15.75;9.10;;;;;;;11.87;100.00;102033.59;5217176;28;20033;-69
2022/08/29 03:19:10;;;;;;;15.57;8.60;;;;;;;11.84;100.00;102033.78;5214752;28;21402;-69
2022/08/29 03:21:42;;;;;;;14.93;9.63;;;;;;;11.85;100.00;102030.16;5221946;28;21212;-69
2022/08/29 03:24:14;;;;;;;14.93;8.63;;;;;;;11.78;100.00;102023.47;5223240;28;20039;-69
2022/08/29 03:26:45;;;;;;;15.05;9.77;;;;;;;11.83;100.00;102024.06;5196042;28;20025;-69
2022/08/29 03:29:16;;;;;;;16.05;10.50;;;;;;;11.76;100.00;102022.72;5221167;28;20038;-69
2022/08/29 03:31:47;;;;;;;15.73;9.30;;;;;;;11.81;100.00;102023.28;5205619;28;20044;-70
2022/08/29 03:34:19;;;;;;;13.73;9.15;;;;;;;11.75;100.00;102007.63;5220784;28;20367;-70
2022/08/29 03:36:50;;;;;;;13.23;8.95;;;;;;;11.78;100.00;102016.31;5197862;28;20046;-70
2022/08/29 03:39:22;;;;;;;16.65;9.60;;;;;;;11.76;100.00;102006.69;5199436;28;20540;-70
2022/08/29 03:41:54;;;;;;;14.55;9.48;;;;;;;11.75;100.00;102012.97;5194155;28;20574;-70
2022/08/29 03:44:26;;;;;;;18.80;9.80;;;;;;;11.78;100.00;102002.09;5214318;28;20661;-70
2022/08/29 03:46:57;;;;;;;20.83;12.68;;;;;;;11.86;100.00;101997.09;5225202;28;20039;-70
2022/08/29 03:49:28;;;;;;;21.10;12.38;;;;;;;11.96;100.00;101984.03;5203096;28;20050;-70
2022/08/29 03:52:00;;;;;;;21.45;12.60;;;;;;;11.94;100.00;101984.13;5209046;28;20042;-70
2022/08/29 03:54:32;;;;;;;21.17;13.55;;;;;;;11.94;100.00;101986.81;5203995;28;20022;-70
2022/08/29 03:57:05;;;;;;;21.95;13.05;;;;;;;12.03;100.00;101981.84;5215227;28;20086;-69
2022/08/29 03:59:36;;;;;;;18.15;11.23;;;;;;;12.06;100.00;101986.97;5207006;28;20100;-70
2022/08/29 04:02:07;;;;;;;18.85;11.27;;;;;;;12.09;100.00;101984.13;5215093;28;20048;-70
2022/08/29 04:07:30;;;;;;;20.15;11.60;;;;;;;12.02;100.00;101980.13;5206299;28;20029;-70
2022/08/29 04:10:04;;;;;;;20.75;10.63;;;;;;;12.01;100.00;101979.25;5210582;28;20077;-70
2022/08/29 04:12:36;;;;;;;16.10;9.50;;;;;;;11.98;100.00;101984.78;5204920;28;20388;-69
2022/08/29 04:15:08;;;;;;;15.43;9.15;;;;;;;12.00;100.00;101996.25;5202296;28;20022;-70
2022/08/29 04:17:39;;;;;;;18.83;11.05;;;;;;;12.13;100.00;101991.84;5202319;28;20124;-69
2022/08/29 04:20:12;;;;;;;14.75;9.80;;;;;;;12.16;100.00;102004.16;5210148;28;20078;-69
2022/08/29 04:22:44;;;;;;;17.33;10.13;;;;;;;12.03;100.00;102003.25;5213540;28;20156;-69
2022/08/29 04:25:16;;;;;;;17.55;9.48;;;;;;;11.98;100.00;102000.00;5202417;28;20018;-69
2022/08/29 04:27:48;;;;;;;17.08;9.55;;;;;;;12.15;100.00;101994.41;5197444;28;20266;-69
2022/08/29 04:30:22;;;;;;;17.38;9.90;;;;;;;11.99;100.00;102001.72;5204378;28;20713;-69
2022/08/29 04:32:53;;;;;;;17.30;10.02;;;;;;;11.96;100.00;101997.41;5203370;28;20493;-69
2022/08/29 04:35:25;;;;;;;16.20;10.18;;;;;;;11.94;100.00;102002.00;5212860;28;20029;-69
2022/08/29 04:37:56;;;;;;;17.15;9.45;;;;;;;11.90;100.00;102006.69;5197889;28;20034;-70
2022/08/29 04:40:28;;;;;;;15.75;9.20;;;;;;;11.89;100.00;102009.41;5203753;28;20499;-70
2022/08/29 04:42:59;;;;;;;17.52;9.70;;;;;;;11.81;100.00;102006.38;5208591;28;20022;-69
2022/08/29 04:45:32;;;;;;;14.93;9.68;;;;;;;11.76;100.00;102007.53;5201228;28;20064;-70
2022/08/29 04:48:03;;;;;;;14.65;8.55;;;;;;;11.72;100.00;102013.19;5205389;28;20419;-70
2022/08/29 04:50:35;;;;;;;14.93;8.82;;;;;;;11.66;100.00;102005.50;5204140;28;20061;-70
2022/08/29 04:53:06;;;;;;;18.05;9.45;;;;;;;11.62;100.00;102007.56;5201073;28;20479;-70
2022/08/29 04:55:37;;;;;;;15.32;8.40;;;;;;;11.59;100.00;102013.06;5206858;28;20463;-69
2022/08/29 04:58:09;;;;;;;19.83;9.90;;;;;;;11.54;100.00;102012.50;5202170;28;20033;-69
2022/08/29 05:00:40;;;;;;;14.82;8.98;;;;;;;11.55;100.00;102020.41;5210321;28;20113;-69
2022/08/29 05:03:11;;;;;;;14.45;9.07;;;;;;;11.58;100.00;102014.91;5225436;28;20476;-70
2022/08/29 05:05:42;;;;;;;13.88;9.13;;;;;;;11.70;100.00;102015.09;5205674;28;20058;-70
2022/08/29 05:08:14;;;;;;;14.55;8.90;;;;;;;11.55;100.00;102011.56;5227534;28;20138;-70
2022/08/29 05:10:46;;;;;;;14.65;9.07;;;;;;;11.55;100.00;102014.22;5221643;28;20027;-70
2022/08/29 05:13:18;;;;;;;16.75;9.65;;;;;;;11.65;100.00;102004.66;5211713;28;20029;-70
2022/08/29 05:15:49;;;;;;;14.02;8.98;;;;;;;11.57;100.00;102009.63;5213999;28;20494;-70
2022/08/29 05:18:20;;;;;;;15.43;8.52;;;;;;;11.65;100.00;102017.19;5202384;28;20030;-70
2022/08/29 05:20:51;;;;;;;14.50;8.95;;;;;;;11.80;100.00;102021.56;5222998;28;20099;-70
2022/08/29 05:23:23;;;;;;;16.58;8.93;;;;;;;11.74;100.00;102017.47;5220819;28;20050;-70
2022/08/29 05:25:59;;;;;;;15.02;7.97;;;;;;;11.74;100.00;102027.31;5223071;28;20057;-70
2022/08/29 05:28:32;;;;;;;13.00;8.32;;;;;;;11.77;100.00;102029.78;5203075;28;20033;-70
2022/08/29 05:31:03;;;;;;;13.38;8.18;;;;;;;11.80;100.00;102032.25;5218320;28;20042;-69
2022/08/29 05:33:34;;;;;;;12.88;8.07;;;;;;;11.83;100.00;102037.44;5216649;28;20365;-70
2022/08/29 05:36:06;;;;;;;10.80;7.60;;;;;;;11.99;100.00;102041.84;5203226;28;20034;-70
2022/08/29 05:38:37;;;;;;;12.13;7.32;;;;;;;11.96;100.00;102043.72;5200408;28;20086;-70
2022/08/29 05:41:09;;;;;;;12.15;7.70;;;;;;;12.10;100.00;102052.69;5193657;28;20044;-70
2022/08/29 05:43:40;;;;;;;11.93;6.97;;;;;;;12.09;100.00;102042.97;5202290;28;20030;-70
2022/08/29 05:46:11;;;;;;;12.98;7.85;;;;;;;12.22;100.00;102048.41;5201097;28;20055;-70
2022/08/29 05:48:42;;;;;;;13.52;7.15;;;;;;;12.10;100.00;102042.88;5204779;28;20049;-70
2022/08/29 05:51:19;;;;;;;15.63;6.78;;;;;;;12.18;100.00;102044.19;5203123;28;20049;-70
2022/08/29 05:53:51;;;;;;;11.88;6.47;;;;;;;12.26;100.00;102056.13;5201855;28;20038;-70
2022/08/29 05:56:25;;;;;;;11.65;6.65;;;;;;;12.30;100.00;102051.44;5202309;28;20042;-69
2022/08/29 05:58:56;;;;;;;11.52;6.65;;;;;;;12.47;100.00;102053.03;5202832;28;20371;-69
2022/08/29 06:01:30;;;;;;;12.25;6.63;;;;;;;12.50;100.00;102047.44;5204427;28;20395;-70
2022/08/29 06:04:02;;;;;;;11.32;5.97;;;;;;;12.57;100.00;102054.13;5203017;28;20029;-70
2022/08/29 06:06:33;;;;;;;14.02;6.00;;;;;;;12.69;100.00;102058.66;5204510;28;20403;-70
2022/08/29 06:09:05;;;;;;;13.18;6.45;;;;;;;12.75;100.00;102060.97;5207167;28;20030;-70
2022/08/29 06:11:37;;;;;;;9.98;5.53;;;;;;;12.81;100.00;102065.06;5206843;28;20388;-70
2022/08/29 06:14:09;;;;;;;9.93;5.75;;;;;;;12.89;100.00;102059.19;5204108;28;20066;-70
2022/08/29 06:16:40;;;;;;;9.27;5.75;;;;;;;12.99;100.00;102062.97;5207865;28;20399;-70
2022/08/29 06:19:12;;;;;;;9.73;5.65;;;;;;;13.07;100.00;102063.28;5193061;28;20038;-69
2022/08/29 06:21:43;;;;;;;11.27;6.18;;;;;;;13.15;100.00;102068.13;5195948;28;20499;-69
2022/08/29 06:24:15;;;;;;;9.18;5.70;;;;;;;13.08;100.00;102070.38;5206594;28;20369;-69
2022/08/29 06:26:46;;;;;;;10.38;5.55;;;;;;;13.17;100.00;102073.38;5206319;28;20040;-70
2022/08/29 06:29:18;;;;;;;9.45;5.63;;;;;;;13.29;100.00;102069.88;5199649;28;20029;-69
2022/08/29 06:31:49;;;;;;;10.85;5.45;;;;;;;13.34;100.00;102070.44;5195317;28;20026;-70
2022/08/29 06:34:21;;;;;;;11.05;6.00;;;;;;;13.39;100.00;102078.19;5195456;28;20695;-70
2022/08/29 06:36:52;;;;;;;9.70;5.57;;;;;;;13.39;100.00;102076.34;5199267;28;20125;-70
2022/08/29 06:39:23;;;;;;;11.18;5.85;;;;;;;13.50;100.00;102070.25;5206523;28;20033;-70
2022/08/29 06:41:55;;;;;;;13.40;6.00;;;;;;;13.64;100.00;102072.84;5201451;28;20546;-69
2022/08/29 06:44:29;;;;;;;13.18;6.80;;;;;;;13.67;100.00;102082.47;5196454;28;21248;-69
2022/08/29 06:47:00;;;;;;;;;;;;;;;13.84;100.00;102087.50;5202911;28;20049;-70
2022/08/29 06:49:32;;;;;;;9.20;6.10;;;;;;;13.87;100.00;102081.09;5207021;28;19921;-70
2022/08/29 06:52:03;;;;;;;14.38;6.28;;;;;;;13.89;100.00;102089.88;5206868;28;20030;-70
2022/08/29 06:54:35;;;;;;;11.50;6.05;;;;;;;14.04;100.00;102096.00;5206982;28;20018;-70
2022/08/29 06:57:06;;;;;;;8.77;5.90;;;;;;;14.15;100.00;102090.69;5208678;28;20042;-70
2022/08/29 06:59:37;;;;;;;11.38;6.03;;;;;;;14.21;100.00;102078.66;5203397;28;20399;-70
2022/08/29 07:02:08;;;;;;;10.63;6.28;;;;;;;14.42;100.00;102074.44;5205011;28;20033;-70
2022/08/29 07:04:40;;;;;;;12.40;5.88;;;;;;;14.42;100.00;102077.13;5204291;28;20045;-70
2022/08/29 07:07:11;;;;;;;9.57;6.00;;;;;;;14.65;100.00;102090.69;5206329;28;20049;-70
2022/08/29 07:09:43;;;;;;;11.50;6.35;;;;;;;14.70;98.11;102089.38;5206640;28;20508;-70
2022/08/29 07:12:14;;;;;;;11.90;5.90;;;;;;;14.93;100.00;102083.28;5203668;28;20136;-70
2022/08/29 07:14:45;;;;;;;13.23;6.18;;;;;;;15.12;97.61;102080.06;5197814;28;20034;-70
2022/08/29 07:17:16;;;;;;;12.40;6.18;;;;;;;15.40;95.38;102081.50;5205702;28;20073;-70
2022/08/29 07:19:48;;;;;;;8.43;4.93;;;;;;;15.60;91.87;102077.25;5202778;28;20034;-70
2022/08/29 07:22:19;;;;;;;10.05;5.45;;;;;;;15.80;88.22;102078.38;5206557;28;20030;-70
2022/08/29 07:24:52;;;;;;;10.20;5.80;;;;;;;16.00;91.91;102080.38;5194950;28;20124;-70
2022/08/29 07:27:23;;;;;;;13.18;6.03;;;;;;;16.30;86.49;102081.59;5199515;28;20030;-70
2022/08/29 07:29:54;;;;;;;9.18;5.05;;;;;;;16.40;85.97;102081.69;5204854;28;20033;-70
2022/08/29 07:32:26;;;;;;;8.50;4.93;;;;;;;16.52;84.40;102080.66;5212780;28;20059;-70
2022/08/29 07:34:57;;;;;;;9.70;4.78;;;;;;;16.79;81.96;102082.91;5204998;28;20058;-70
2022/08/29 07:37:28;;;;;;;8.95;4.82;;;;;;;16.81;83.31;102080.94;5206184;28;20030;-70
2022/08/29 07:40:00;;;;;;;8.65;4.93;;;;;;;17.04;80.37;102076.34;5207558;28;20443;-70
2022/08/29 07:42:33;;;;;;;8.05;4.20;;;;;;;17.17;78.10;102064.53;5199423;28;20458;-70
2022/08/29 07:45:06;;;;;;;6.70;3.65;;;;;;;17.21;74.06;102066.84;5203782;28;20021;-70
2022/08/29 07:47:38;;;;;;;8.05;3.90;;;;;;;17.31;77.92;102066.03;5206378;28;20033;-70
2022/08/29 07:50:11;;;;;;;8.50;3.90;;;;;;;17.36;72.47;102077.31;5197436;28;20122;-70
2022/08/29 07:52:42;;;;;;;7.88;3.40;;;;;;;17.43;71.58;102083.88;5205620;28;21678;-69
2022/08/29 07:55:14;;;;;;;5.32;2.95;;;;;;;17.43;69.46;102082.03;5204708;28;20026;-69
2022/08/29 07:57:47;;;;;;;6.55;2.42;;;;;;;17.45;70.40;102087.31;5210330;28;20463;-69
2022/08/29 08:00:19;;;;;;;7.37;3.20;;;;;;;17.65;72.85;102080.19;5207125;28;20425;-69
2022/08/29 08:02:50;;;;;;;6.75;2.83;;;;;;;17.75;70.30;102075.69;5205752;28;20063;-70
2022/08/29 08:05:22;;;;;;;8.70;3.22;;;;;;;17.83;69.31;102086.69;5208029;28;20028;-70
2022/08/29 08:07:53;;;;;;;8.60;3.50;;;;;;;17.90;72.66;102078.91;5207743;28;20038;-70
2022/08/29 08:10:26;;;;;;;6.78;3.10;;;;;;;17.96;67.39;102083.78;5206212;28;20028;-70
2022/08/29 08:12:57;;;;;;;6.15;2.60;;;;;;;18.00;67.30;102076.25;5207910;28;20082;-70
2022/08/29 08:15:28;;;;;;;6.03;3.15;;;;;;;18.04;67.69;102075.00;5202484;28;20456;-70
2022/08/29 08:18:00;;;;;;;7.55;3.03;;;;;;;18.18;67.26;102071.94;5208629;28;20499;-70
2022/08/29 08:20:31;;;;;;;9.95;3.05;;;;;;;18.21;67.10;102076.19;5206132;28;20029;-70
2022/08/29 08:23:03;;;;;;;5.72;2.95;;;;;;;18.27;64.02;102072.94;5214571;28;20124;-70
2022/08/29 08:25:34;;;;;;;6.38;2.83;;;;;;;18.36;66.75;102076.66;5206996;28;20594;-70
2022/08/29 08:28:05;;;;;;;6.95;2.60;;;;;;;18.44;66.81;102066.00;5209466;28;20025;-69
2022/08/29 08:30:37;;;;;;;8.10;3.22;;;;;;;18.47;64.86;102078.41;5216417;28;20025;-69
2022/08/29 08:33:08;;;;;;;9.07;3.25;;;;;;;18.50;65.70;102081.66;5204546;28;20034;-69
2022/08/29 08:35:40;;;;;;;6.57;3.03;;;;;;;18.44;62.63;102081.38;5206263;28;20654;-69
2022/08/29 08:38:11;;;;;;;8.00;2.78;;;;;;;18.40;61.39;102086.19;5207516;28;20510;-69
2022/08/29 08:40:55;;;;;;;5.85;2.83;;;;;;;18.40;61.71;102080.78;5205432;28;20037;-70
2022/08/29 08:43:52;;;;;;;6.97;2.95;;;;;;;18.34;62.42;102075.94;5208910;28;20495;-70
2022/08/29 08:46:33;;;;;;;6.45;2.53;;;;;;;18.42;62.68;102076.09;5205340;28;20045;-69
2022/08/29 08:49:19;;;;;;;7.55;2.90;;;;;;;18.39;61.74;102063.75;5204987;28;20392;-70
2022/08/29 08:51:56;;;;;;;7.78;2.50;;;;;;;18.55;60.64;102062.34;5205677;28;20030;-69
2022/08/29 08:54:33;;;;;;;8.25;2.80;;;;;;;18.61;62.20;102068.03;5208574;28;20224;-69
2022/08/29 08:57:08;;;;;;;6.43;2.85;;;;;;;18.77;62.25;102069.31;5208052;28;20082;-69
2022/08/29 08:59:42;;;;;;;6.97;2.95;;;;;;;18.91;61.84;102068.09;5207438;28;20488;-69
2022/08/29 09:02:44;;;;;;;6.97;2.70;;;;;;;18.91;61.71;102087.88;5200579;28;20136;-70
2022/08/29 09:05:36;;;;;;;6.70;3.40;;;;;;;19.00;62.05;102073.50;5199481;28;20068;-70
2022/08/29 09:08:20;;;;;;;7.15;3.28;;;;;;;19.10;61.26;102070.81;5204276;28;20463;-70
2022/08/29 09:11:02;;;;;;;9.57;3.47;;;;;;;19.14;60.97;102079.50;5197113;28;20026;-70
2022/08/29 09:13:57;;;;;;;6.22;3.30;;;;;;;19.16;60.07;102075.63;5203421;28;20052;-69
2022/08/29 09:16:39;;;;;;;6.93;3.97;;;;;;;19.21;58.57;102080.59;5206410;28;20701;-70
2022/08/29 09:19:13;;;;;;;6.50;3.13;;;;;;;19.22;61.30;102085.03;5205782;28;20348;-70
2022/08/29 09:21:52;;;;;;;8.57;3.42;;;;;;;19.36;63.04;102083.72;5202793;28;20021;-70
2022/08/29 09:24:31;;;;;;;7.78;3.47;;;;;;;19.33;64.00;102090.28;5204013;28;20069;-69
2022/08/29 09:27:05;;;;;;;6.22;3.15;;;;;;;19.31;62.14;102086.88;5198534;28;20054;-70
2022/08/29 09:29:36;;;;;;;9.40;4.03;;;;;;;19.46;60.31;102087.25;5203437;28;20090;-70
2022/08/29 09:32:11;;;;;;;8.73;3.00;;;;;;;19.50;62.13;102088.69;5200873;28;20030;-70
2022/08/29 09:34:45;;;;;;;8.48;3.13;;;;;;;19.40;59.87;102094.09;5203428;28;20040;-70
2022/08/29 09:37:33;;;;;;;9.90;3.47;;;;;;;19.57;60.83;102094.38;5199684;28;20061;-70
2022/08/29 09:40:12;;;;;;;8.15;2.97;;;;;;;19.41;58.86;102092.28;5199614;28;20121;-70
2022/08/29 09:42:58;;;;;;;5.22;2.90;;;;;;;19.51;59.35;102089.53;5204390;28;20480;-70
2022/08/29 09:45:29;;;;;;;7.30;3.15;;;;;;;19.51;64.33;102086.84;5204705;28;20038;-70
2022/08/29 09:48:16;;;;;;;5.65;3.00;;;;;;;19.51;60.90;102089.53;5204365;28;20050;-70
2022/08/29 09:50:47;;;;;;;7.00;3.10;;;;;;;19.31;58.32;102083.28;5199002;28;20079;-70
2022/08/29 09:53:22;;;;;;;7.22;3.17;;;;;;;19.22;58.02;102090.44;5204012;28;20486;-70
2022/08/29 09:55:53;;;;;;;8.70;3.28;;;;;;;19.14;59.08;102090.31;5203786;28;20506;-70
2022/08/29 09:58:34;;;;;;;5.90;3.40;;;;;;;19.38;58.61;102084.44;5198469;28;20029;-70
2022/08/29 10:01:16;;;;;;;6.60;3.05;;;;;;;19.41;59.82;102078.72;5197002;28;20034;-70
2022/08/29 10:04:06;;;;;;;8.25;3.30;;;;;;;19.43;60.43;102078.59;5201564;28;20030;-70
2022/08/29 10:06:39;;;;;;;9.38;3.60;;;;;;;19.32;60.30;102079.59;5199543;28;20029;-70
2022/08/29 10:09:31;;;;;;;6.55;3.15;;;;;;;19.27;61.72;102081.88;5197459;28;20577;-70
2022/08/29 10:12:12;;;;;;;8.20;3.53;;;;;;;19.17;60.56;102085.44;5205493;28;21255;-70
2022/08/29 10:14:55;;;;;;;8.73;3.15;;;;;;;19.13;60.52;102088.59;5183440;28;20062;-70
2022/08/29 10:20:58;;;;;;;7.53;3.15;;;;;;;19.33;60.85;102090.28;5181248;28;20053;-70
2022/08/29 10:24:10;;;;;;;8.38;3.55;;;;;;;19.38;60.91;102082.56;5207540;28;20045;-70
2022/08/29 10:26:55;;;;;;;6.57;2.80;;;;;;;19.39;61.84;102084.28;5209806;28;20034;-70
2022/08/29 10:29:38;;;;;;;7.00;3.00;;;;;;;19.28;62.37;102081.75;5202282;28;20033;-70
2022/08/29 10:32:26;;;;;;;9.43;3.25;;;;;;;19.30;62.75;102077.03;5209189;28;20034;-70
2022/08/29 10:35:10;;;;;;;7.22;3.33;;;;;;;19.34;62.36;102073.03;5210884;28;20037;-70
2022/08/29 10:37:51;;;;;;;7.18;2.90;;;;;;;19.49;60.59;102067.19;5207254;28;20388;-70
2022/08/29 10:40:27;;;;;;;8.55;3.60;;;;;;;19.51;60.22;102065.19;5208644;28;20033;-70
2022/08/29 10:43:13;;;;;;;8.48;3.70;;;;;;;19.40;60.50;102068.91;5205292;28;20156;-69
2022/08/29 10:46:05;;;;;;;7.28;3.85;;;;;;;19.28;58.30;102062.78;5211197;28;20029;-69
2022/08/29 10:48:49;;;;;;;10.02;4.30;;;;;;;19.49;59.35;102059.06;5203012;28;20057;-70
2022/08/29 10:51:32;;;;;;;7.78;3.75;;;;;;;19.63;61.20;102064.00;5202103;28;20044;-70
2022/08/29 10:54:25;;;;;;;12.40;4.38;;;;;;;19.52;60.02;102061.47;5201689;28;20034;-70
2022/08/29 10:57:00;;;;;;;9.07;3.80;;;;;;;19.93;60.30;102053.94;5209146;28;20040;-70
2022/08/29 11:00:01;;;;;;;6.10;3.83;;;;;;;19.90;62.04;102044.25;5205309;28;20660;-70
2022/08/29 11:02:58;;;;;;;8.50;3.38;;;;;;;20.02;58.49;102052.19;5213749;28;20174;-70
2022/08/29 11:05:38;;;;;;;9.10;3.92;;;;;;;19.84;57.59;102044.84;5199655;28;20571;-70
2022/08/29 11:08:18;;;;;;;8.80;4.03;;;;;;;19.77;58.92;102038.31;5208898;28;20073;-70
2022/08/29 11:10:51;;;;;;;8.43;3.38;;;;;;;19.85;58.68;102029.44;5203717;28;20449;-70
2022/08/29 11:13:29;;;;;;;7.10;3.35;;;;;;;19.72;59.61;102041.47;5210126;28;20030;-70
2022/08/29 11:16:08;;;;;;;6.72;3.15;;;;;;;19.88;58.27;102032.72;5202144;28;20032;-70
2022/08/29 11:18:56;;;;;;;7.30;3.20;;;;;;;19.94;58.84;102039.38;5195812;28;20086;-70
2022/08/29 11:21:42;;;;;;;7.72;3.55;;;;;;;19.98;56.89;102036.25;5200458;28;20038;-71
2022/08/29 11:24:17;;;;;;;7.10;3.08;;;;;;;19.93;56.84;102032.28;5209575;28;20025;-70
2022/08/29 11:27:00;;;;;;;6.70;3.35;;;;;;;19.95;56.19;102022.16;5198694;28;20387;-71
2022/08/29 11:29:44;;;;;;;5.47;2.83;;;;;;;19.94;57.48;102024.00;5201732;28;20038;-71
2022/08/29 11:32:28;;;;;;;9.68;3.33;;;;;;;20.06;57.54;102012.94;5203232;28;20026;-71
2022/08/29 11:35:26;;;;;;;7.38;2.90;;;;;;;19.94;55.82;102009.59;5202598;28;20041;-71
2022/08/29 11:38:25;;;;;;;9.20;3.22;;;;;;;20.15;55.67;102006.63;5201681;28;20558;-70
2022/08/29 11:41:05;;;;;;;7.30;3.30;;;;;;;20.20;55.16;102011.59;5200064;28;20032;-71
2022/08/29 11:43:41;;;;;;;7.53;3.28;;;;;;;19.98;57.90;102008.28;5203804;28;20025;-71
2022/08/29 11:46:14;;;;;;;7.85;3.95;;;;;;;20.25;55.65;102017.41;5203177;28;20034;-71
2022/08/29 11:48:51;;;;;;;7.57;2.92;;;;;;;20.13;55.94;102004.06;5202208;28;20057;-70
2022/08/29 11:51:36;;;;;;;6.45;3.03;;;;;;;20.26;56.19;102008.28;5201197;28;20045;-71
2022/08/29 11:54:28;;;;;;;6.63;3.30;;;;;;;20.22;57.93;102004.16;5202219;28;20105;-72
2022/08/29 11:56:59;;;;;;;7.93;3.20;;;;;;;20.26;55.79;102000.16;5205519;28;21221;-71
2022/08/29 11:59:42;;;;;;;6.47;3.30;;;;;;;20.40;56.51;102001.47;5210510;28;20113;-70